createdAt,value
2022-12-22T00:01:06.902Z,110.90
2022-12-22T00:03:58.353Z,112.68
2022-12-22T00:06:53.330Z,105.80
2022-12-22T00:09:48.259Z,107.72
2022-12-22T00:12:40.651Z,107.70
2022-12-22T00:15:38.549Z,119.05
2022-12-22T00:18:40.726Z,117.22
2022-12-22T00:21:37.202Z,119.95
2022-12-22T00:24:30.792Z,127.35
2022-12-22T00:27:27.803Z,122.82
2022-12-22T00:30:22.233Z,115.57
2022-12-22T00:33:13.145Z,109.90
2022-12-22T00:36:05.239Z,112.90
2022-12-22T00:38:56.607Z,110.30
2022-12-22T00:41:47.979Z,115.65
2022-12-22T00:44:44.821Z,109.38
2022-12-22T00:47:45.771Z,111.07
2022-12-22T00:50:41.469Z,117.90
2022-12-22T00:53:35.487Z,117.90
2022-12-22T00:56:25.513Z,111.00
2022-12-22T00:59:20.624Z,108.25
2022-12-22T01:02:14.377Z,120.78
2022-12-22T01:05:04.171Z,110.80
2022-12-22T01:07:57.507Z,117.80
2022-12-22T01:10:46.811Z,116.88
2022-12-22T01:13:41.057Z,121.72
2022-12-22T01:16:36.425Z,115.50
2022-12-22T01:19:31.013Z,153.27
2022-12-22T01:22:27.820Z,134.40
2022-12-22T01:25:29.637Z,119.38
2022-12-22T01:28:25.409Z,115.82
2022-12-22T01:31:37.029Z,123.47
2022-12-22T01:34:31.176Z,131.02
2022-12-22T01:37:30.478Z,118.35
2022-12-22T01:40:33.173Z,118.90
2022-12-22T01:43:44.095Z,116.13
2022-12-22T01:46:41.406Z,119.53
2022-12-22T01:49:47.427Z,122.22
2022-12-22T01:52:41.414Z,117.45
2022-12-22T01:58:21.228Z,112.40
2022-12-22T02:01:17.695Z,105.72
2022-12-22T02:04:15.248Z,109.97
2022-12-22T02:07:12.487Z,109.82
2022-12-22T02:10:18.210Z,116.63
2022-12-22T02:13:44.731Z,110.60
2022-12-22T02:16:58.311Z,110.88
2022-12-22T02:20:04.156Z,72.77
2022-12-22T02:23:20.130Z,104.95
2022-12-22T02:26:37.197Z,111.03
2022-12-22T02:32:23.233Z,125.43
2022-12-22T02:35:16.548Z,125.78
2022-12-22T02:38:38.281Z,112.35
2022-12-22T02:41:48.067Z,110.13
2022-12-22T02:45:23.424Z,114.13
2022-12-22T02:48:27.336Z,116.25
2022-12-22T02:51:29.216Z,114.13
2022-12-22T02:54:22.365Z,117.32
2022-12-22T02:57:08.038Z,115.47
2022-12-22T02:59:56.091Z,117.85
2022-12-22T03:02:49.454Z,125.25
2022-12-22T03:05:41.022Z,107.93
2022-12-22T03:08:37.207Z,109.47
2022-12-22T03:11:33.757Z,110.38
2022-12-22T03:14:24.992Z,122.60
2022-12-22T03:17:13.178Z,103.13
2022-12-22T03:20:12.323Z,117.97
2022-12-22T03:23:14.413Z,111.60
2022-12-22T03:25:53.296Z,121.65
2022-12-22T03:28:36.868Z,124.18
2022-12-22T03:31:09.913Z,106.53
2022-12-22T03:33:47.534Z,111.75
2022-12-22T03:36:22.618Z,124.88
2022-12-22T03:38:54.917Z,129.77
2022-12-22T03:41:48.477Z,112.82
2022-12-22T03:44:42.523Z,126.57
2022-12-22T03:49:57.415Z,131.65
2022-12-22T03:52:37.991Z,128.30
2022-12-22T03:55:24.837Z,122.68
2022-12-22T03:58:02.570Z,123.50
2022-12-22T04:00:40.806Z,124.18
2022-12-22T04:03:18.465Z,122.05
2022-12-22T04:05:53.783Z,134.40
2022-12-22T04:08:32.202Z,121.10
2022-12-22T04:11:23.446Z,126.15
2022-12-22T04:13:57.665Z,119.22
2022-12-22T04:16:40.787Z,125.90
2022-12-22T04:19:18.687Z,131.70
2022-12-22T04:21:51.709Z,127.10
2022-12-22T04:24:24.425Z,118.75
2022-12-22T04:26:57.086Z,127.10
2022-12-22T04:29:37.520Z,122.20
2022-12-22T04:32:23.855Z,124.93
2022-12-22T04:34:58.801Z,116.50
2022-12-22T04:37:34.915Z,118.13
2022-12-22T04:40:10.135Z,105.65
2022-12-22T04:42:48.372Z,119.28
2022-12-22T04:45:30.572Z,119.53
2022-12-22T04:48:11.949Z,106.57
2022-12-22T04:50:55.592Z,113.18
2022-12-22T04:53:34.205Z,119.85
2022-12-22T04:56:13.712Z,137.82
2022-12-22T04:58:49.112Z,114.25
2022-12-22T05:01:32.117Z,107.55
2022-12-22T05:04:14.469Z,113.75
2022-12-22T05:07:00.312Z,117.40
2022-12-22T05:09:44.189Z,138.03
2022-12-22T05:12:35.247Z,114.53
2022-12-22T05:15:13.697Z,114.82
2022-12-22T05:17:49.543Z,120.30
2022-12-22T05:20:27.395Z,127.68
2022-12-22T05:23:08.859Z,126.93
2022-12-22T05:25:40.965Z,116.78
2022-12-22T05:28:19.116Z,120.88
2022-12-22T05:30:59.936Z,126.60
2022-12-22T05:33:45.070Z,138.93
2022-12-22T05:36:30.899Z,121.88
2022-12-22T05:39:17.428Z,116.75
2022-12-22T05:41:49.446Z,123.03
2022-12-22T05:44:24.735Z,120.63
2022-12-22T05:47:00.353Z,119.78
2022-12-22T05:49:41.267Z,116.80
2022-12-22T05:52:19.043Z,126.60
2022-12-22T05:54:58.545Z,123.35
2022-12-22T05:57:36.145Z,133.45
2022-12-22T06:00:20.053Z,129.85
2022-12-22T06:02:58.849Z,144.15
2022-12-22T06:05:41.178Z,145.20
2022-12-22T06:08:20.435Z,131.07
2022-12-22T06:11:05.240Z,136.50
2022-12-22T06:13:42.508Z,123.00
2022-12-22T06:16:21.088Z,127.07
2022-12-22T06:18:53.342Z,136.93
2022-12-22T06:21:34.114Z,149.57
2022-12-22T06:24:15.190Z,138.93
2022-12-22T06:26:58.636Z,146.38
2022-12-22T06:29:43.522Z,125.55
2022-12-22T06:32:33.639Z,128.98
2022-12-22T06:35:11.648Z,122.47
2022-12-22T06:37:44.172Z,123.25
2022-12-22T06:40:25.837Z,126.53
2022-12-22T06:43:09.782Z,122.32
2022-12-22T06:45:45.845Z,134.25
2022-12-22T06:48:26.587Z,135.48
2022-12-22T06:51:01.633Z,131.98
2022-12-22T06:53:33.841Z,143.13
2022-12-22T06:56:11.782Z,134.02
2022-12-22T06:58:44.071Z,131.90
2022-12-22T07:01:19.856Z,123.97
2022-12-22T07:03:58.766Z,128.50
2022-12-22T07:06:39.605Z,118.75
2022-12-22T07:09:18.454Z,131.55
2022-12-22T07:11:56.064Z,124.07
2022-12-22T07:14:33.877Z,123.32
2022-12-22T07:17:15.132Z,123.63
2022-12-22T07:19:50.480Z,125.43
2022-12-22T07:22:29.529Z,121.05
2022-12-22T07:25:11.318Z,130.15
2022-12-22T07:27:53.363Z,114.65
2022-12-22T07:30:30.844Z,121.85
2022-12-22T07:33:08.749Z,137.45
2022-12-22T07:35:46.287Z,123.72
2022-12-22T07:38:29.477Z,129.27
2022-12-22T07:41:31.308Z,137.35
2022-12-22T07:44:15.616Z,125.03
2022-12-22T07:46:50.646Z,120.90
2022-12-22T07:49:46.994Z,127.45
2022-12-22T07:52:21.899Z,123.05
2022-12-22T07:55:08.471Z,117.85
2022-12-22T07:57:51.664Z,124.47
2022-12-22T08:00:30.281Z,144.07
2022-12-22T08:03:04.762Z,130.60
2022-12-22T08:05:48.505Z,115.07
2022-12-22T08:08:23.873Z,112.47
2022-12-22T08:11:05.068Z,136.60
2022-12-22T08:13:45.953Z,123.10
2022-12-22T08:16:29.960Z,128.35
2022-12-22T08:19:18.080Z,139.43
2022-12-22T08:21:53.321Z,122.97
2022-12-22T08:24:31.460Z,135.95
2022-12-22T08:27:25.864Z,126.40
2022-12-22T08:30:02.229Z,123.63
2022-12-22T08:32:40.739Z,134.18
2022-12-22T08:35:23.853Z,124.70
2022-12-22T08:37:59.214Z,134.00
2022-12-22T08:40:43.253Z,140.48
2022-12-22T08:43:17.087Z,125.40
2022-12-22T08:45:55.464Z,133.13
2022-12-22T08:48:34.192Z,143.38
2022-12-22T08:51:24.632Z,146.35
2022-12-22T08:54:05.420Z,138.45
2022-12-22T08:56:44.810Z,135.63
2022-12-22T08:59:20.065Z,116.25
2022-12-22T09:02:06.587Z,120.32
2022-12-22T09:04:38.041Z,104.63
2022-12-22T09:07:27.196Z,115.78
2022-12-22T09:09:59.492Z,109.68
2022-12-22T09:12:40.022Z,103.68
2022-12-22T09:15:14.927Z,98.50
2022-12-22T09:17:50.468Z,118.93
2022-12-22T09:20:30.397Z,109.20
2022-12-22T09:23:08.843Z,110.15
2022-12-22T09:25:52.263Z,91.72
2022-12-22T09:28:30.511Z,96.30
2022-12-22T09:31:09.489Z,101.75
2022-12-22T09:33:52.415Z,104.75
2022-12-22T09:36:37.906Z,97.70
2022-12-22T09:39:26.910Z,94.93
2022-12-22T09:42:14.241Z,89.00
2022-12-22T09:44:50.806Z,100.20
2022-12-22T09:47:55.489Z,104.97
2022-12-22T09:50:38.604Z,103.05
2022-12-22T09:53:22.925Z,104.53
2022-12-22T09:56:08.805Z,108.55
2022-12-22T09:58:59.807Z,110.38
2022-12-22T10:02:00.743Z,122.38
2022-12-22T10:04:48.761Z,115.30
2022-12-22T10:07:40.203Z,110.15
2022-12-22T10:10:29.107Z,109.65
2022-12-22T10:13:06.662Z,117.55
2022-12-22T10:15:54.997Z,107.13
2022-12-22T10:18:35.054Z,123.80
2022-12-22T10:21:15.837Z,129.75
2022-12-22T10:23:53.413Z,127.20
2022-12-22T10:26:41.179Z,128.25
2022-12-22T10:29:16.738Z,113.68
2022-12-22T10:32:02.088Z,119.47
2022-12-22T10:34:38.095Z,117.18
2022-12-22T10:37:25.345Z,113.10
2022-12-22T10:40:15.750Z,116.72
2022-12-22T10:43:02.212Z,120.45
2022-12-22T10:45:52.821Z,124.57
2022-12-22T10:48:37.424Z,115.07
2022-12-22T10:51:19.755Z,115.45
2022-12-22T10:54:06.657Z,109.22
2022-12-22T10:57:04.556Z,112.50
2022-12-22T10:59:59.196Z,121.43
2022-12-22T11:02:38.208Z,110.65
2022-12-22T11:05:29.159Z,120.85
2022-12-22T11:08:23.029Z,115.03
2022-12-22T11:11:11.325Z,135.63
2022-12-22T11:13:51.876Z,126.80
2022-12-22T11:16:45.994Z,122.25
2022-12-22T11:22:25.195Z,125.03
2022-12-22T11:25:23.998Z,121.97
2022-12-22T11:28:11.005Z,135.85
2022-12-22T11:31:05.621Z,118.82
2022-12-22T11:33:52.331Z,120.25
2022-12-22T11:37:00.919Z,119.18
2022-12-22T11:39:59.263Z,116.88
2022-12-22T11:43:14.032Z,124.18
2022-12-22T11:46:18.779Z,111.60
2022-12-22T11:49:21.740Z,120.18
2022-12-22T11:52:31.679Z,112.53
2022-12-22T11:55:30.800Z,117.57
2022-12-22T11:58:21.810Z,126.60
2022-12-22T12:01:20.392Z,126.82
2022-12-22T12:04:27.400Z,129.85
2022-12-22T12:07:37.994Z,128.57
2022-12-22T12:10:25.126Z,123.13
2022-12-22T12:13:26.452Z,124.70
2022-12-22T12:16:29.821Z,122.15
2022-12-22T12:19:36.524Z,138.43
2022-12-22T12:22:32.034Z,124.53
2022-12-22T12:25:31.765Z,123.95
2022-12-22T12:28:42.814Z,126.38
2022-12-22T12:31:26.956Z,126.53
2022-12-22T12:34:03.855Z,124.47
2022-12-22T12:37:04.781Z,130.10
2022-12-22T12:39:58.975Z,147.05
2022-12-22T12:45:49.185Z,136.70
2022-12-22T12:48:36.593Z,128.95
2022-12-22T12:51:48.930Z,134.25
2022-12-22T12:54:41.608Z,127.50
2022-12-22T12:57:47.955Z,133.23
2022-12-22T13:00:59.084Z,135.38
2022-12-22T13:06:52.087Z,126.72
2022-12-22T13:09:50.078Z,137.50
2022-12-22T13:13:08.900Z,122.97
2022-12-22T13:15:50.538Z,127.65
2022-12-22T13:18:58.670Z,145.18
2022-12-22T13:21:53.437Z,167.18
2022-12-22T13:24:35.856Z,141.80
2022-12-22T13:27:15.899Z,137.27
2022-12-22T13:29:56.182Z,129.77
2022-12-22T13:32:35.974Z,170.88
2022-12-22T13:35:33.036Z,158.75
2022-12-22T13:38:35.258Z,153.77
2022-12-22T13:41:27.430Z,151.52
2022-12-22T13:44:09.589Z,151.45
2022-12-22T13:49:58.708Z,142.75
2022-12-22T13:52:27.370Z,159.07
2022-12-22T13:55:01.497Z,128.95
2022-12-22T13:57:38.904Z,139.73
2022-12-22T14:00:22.571Z,161.70
2022-12-22T14:02:59.125Z,145.13
2022-12-22T14:05:41.931Z,148.10
2022-12-22T14:08:31.444Z,164.50
2022-12-22T14:11:07.462Z,141.10
2022-12-22T14:13:54.585Z,140.65
2022-12-22T14:16:27.468Z,134.30
2022-12-22T14:19:04.224Z,142.48
2022-12-22T14:21:38.413Z,131.23
2022-12-22T14:24:29.253Z,154.85
2022-12-22T14:27:12.186Z,166.35
2022-12-22T14:29:45.349Z,145.68
2022-12-22T14:32:52.342Z,138.05
2022-12-22T14:36:02.558Z,137.40
2022-12-22T14:38:51.158Z,142.55
2022-12-22T14:41:41.570Z,138.75
2022-12-22T14:44:28.499Z,134.75
2022-12-22T14:47:17.831Z,138.95
2022-12-22T14:49:55.105Z,143.43
2022-12-22T14:52:36.328Z,146.05
2022-12-22T14:55:24.106Z,131.18
2022-12-22T14:58:09.172Z,135.25
2022-12-22T15:00:46.926Z,143.93
2022-12-22T15:03:38.626Z,149.65
2022-12-22T15:06:32.744Z,146.98
2022-12-22T15:09:47.225Z,156.25
2022-12-22T15:15:15.687Z,142.23
2022-12-22T15:17:53.677Z,157.20
2022-12-22T15:20:31.200Z,151.98
2022-12-22T15:23:17.214Z,153.63
2022-12-22T15:25:53.378Z,141.48
2022-12-22T15:28:28.538Z,162.40
2022-12-22T15:31:08.204Z,153.43
2022-12-22T15:33:44.803Z,156.15
2022-12-22T15:36:18.300Z,146.18
2022-12-22T15:38:50.561Z,151.02
2022-12-22T15:41:36.967Z,149.90
2022-12-22T15:44:12.675Z,166.38
2022-12-22T15:46:54.430Z,158.68
2022-12-22T15:49:34.717Z,171.90
2022-12-22T15:52:14.904Z,143.93
2022-12-22T15:54:52.949Z,160.95
2022-12-22T15:57:34.026Z,154.63
2022-12-22T16:00:10.225Z,161.57
2022-12-22T16:02:48.693Z,155.85
2022-12-22T16:05:18.952Z,151.18
2022-12-22T16:07:51.905Z,154.00
2022-12-22T16:10:42.399Z,139.57
2022-12-22T16:13:25.297Z,150.23
2022-12-22T16:15:58.584Z,150.65
2022-12-22T16:18:34.336Z,141.90
2022-12-22T16:21:29.698Z,143.35
2022-12-22T16:24:04.121Z,154.27
2022-12-22T16:26:39.499Z,144.85
2022-12-22T16:29:21.077Z,174.48
2022-12-22T16:31:56.589Z,175.07
2022-12-22T16:34:39.471Z,186.27
2022-12-22T16:37:12.733Z,167.70
2022-12-22T16:39:55.602Z,197.80
2022-12-22T16:45:49.372Z,178.02
2022-12-22T16:48:28.760Z,155.10
2022-12-22T16:51:06.428Z,160.30
2022-12-22T16:53:38.859Z,163.18
2022-12-22T16:56:28.254Z,156.57
2022-12-22T16:59:01.026Z,145.48
2022-12-22T17:01:40.447Z,156.18
2022-12-22T17:04:23.931Z,159.50
2022-12-22T17:06:58.569Z,139.18
2022-12-22T17:09:40.646Z,156.88
2022-12-22T17:12:26.894Z,151.48
2022-12-22T17:15:04.787Z,152.35
2022-12-22T17:17:42.683Z,144.32
2022-12-22T17:20:31.839Z,147.27
2022-12-22T17:23:12.669Z,141.15
2022-12-22T17:25:47.681Z,140.70
2022-12-22T17:28:25.148Z,154.48
2022-12-22T17:31:00.157Z,139.07
2022-12-22T17:33:32.862Z,139.90
2022-12-22T17:36:03.887Z,148.27
2022-12-22T17:38:37.054Z,146.07
2022-12-22T17:41:16.980Z,149.80
2022-12-22T17:43:55.079Z,145.38
2022-12-22T17:46:33.516Z,153.30
2022-12-22T17:49:13.302Z,134.55
2022-12-22T17:51:50.770Z,150.77
2022-12-22T17:54:32.050Z,162.77
2022-12-22T17:57:16.121Z,140.57
2022-12-22T17:59:45.828Z,163.35
2022-12-22T18:02:29.952Z,154.15
2022-12-22T18:05:10.886Z,151.70
2022-12-22T18:07:50.385Z,140.25
2022-12-22T18:10:55.379Z,144.50
2022-12-22T18:13:36.220Z,140.52
2022-12-22T18:16:10.379Z,166.48
2022-12-22T18:18:54.675Z,157.63
2022-12-22T18:21:28.109Z,171.35
2022-12-22T18:24:05.865Z,170.00
2022-12-22T18:26:56.583Z,164.18
2022-12-22T18:29:38.280Z,164.85
2022-12-22T18:32:22.872Z,163.60
2022-12-22T18:35:04.630Z,178.63
2022-12-22T18:37:42.847Z,160.90
2022-12-22T18:40:28.664Z,176.93
2022-12-22T18:43:11.776Z,171.60
2022-12-22T18:46:04.528Z,165.10
2022-12-22T18:48:43.107Z,164.98
2022-12-22T18:51:39.603Z,174.38
2022-12-22T18:54:37.079Z,180.57
2022-12-22T18:57:29.352Z,179.52
2022-12-22T19:00:13.528Z,172.60
2022-12-22T19:02:54.844Z,179.68
2022-12-22T19:05:31.213Z,172.50
2022-12-22T19:08:06.857Z,161.73
2022-12-22T19:11:10.048Z,169.52
2022-12-22T19:13:52.746Z,166.60
2022-12-22T19:16:32.874Z,179.18
2022-12-22T19:19:15.432Z,152.52
2022-12-22T19:21:53.831Z,153.02
2022-12-22T19:24:34.984Z,150.45
2022-12-22T19:27:28.397Z,151.60
2022-12-22T19:30:08.545Z,153.98
2022-12-22T19:32:52.212Z,161.50
2022-12-22T19:35:29.493Z,151.43
2022-12-22T19:38:26.419Z,170.27
2022-12-22T19:41:09.896Z,184.25
2022-12-22T19:44:08.635Z,178.27
2022-12-22T19:46:50.334Z,171.82
2022-12-22T19:49:43.180Z,179.05
2022-12-22T19:52:20.561Z,176.32
2022-12-22T19:55:04.390Z,177.93
2022-12-22T20:00:20.646Z,172.30
2022-12-22T20:05:38.387Z,177.88
2022-12-22T20:08:17.405Z,158.60
2022-12-22T20:11:06.352Z,151.35
2022-12-22T20:13:53.460Z,166.82
2022-12-22T20:16:40.234Z,143.77
2022-12-22T20:19:29.511Z,138.25
2022-12-22T20:22:10.124Z,147.25
2022-12-22T20:24:54.869Z,162.73
2022-12-22T20:27:38.545Z,157.43
2022-12-22T20:30:32.769Z,138.48
2022-12-22T20:36:26.474Z,140.82
2022-12-22T20:39:04.795Z,131.90
2022-12-22T20:41:52.908Z,147.75
2022-12-22T20:44:31.843Z,147.63
2022-12-22T20:47:23.649Z,145.48
2022-12-22T20:50:22.028Z,145.82
2022-12-22T20:53:02.683Z,142.80
2022-12-22T20:55:42.995Z,147.38
2022-12-22T20:58:32.671Z,151.63
2022-12-22T21:01:17.004Z,155.10
2022-12-22T21:04:20.033Z,156.38
2022-12-22T21:07:07.153Z,161.80
2022-12-22T21:09:48.452Z,169.45
2022-12-22T21:12:32.235Z,169.93
2022-12-22T21:15:18.185Z,154.98
2022-12-22T21:20:57.804Z,175.85
2022-12-22T21:23:32.794Z,172.68
2022-12-22T21:26:18.894Z,167.20
2022-12-22T21:29:02.292Z,171.73
2022-12-22T21:31:52.394Z,162.13
2022-12-22T21:34:30.373Z,160.75
2022-12-22T21:37:20.078Z,161.32
2022-12-22T21:40:12.192Z,157.93
2022-12-22T21:42:56.788Z,141.85
2022-12-22T21:45:43.958Z,145.13
2022-12-22T21:48:25.579Z,166.93
2022-12-22T21:51:03.705Z,156.90
2022-12-22T21:53:44.886Z,146.10
2022-12-22T21:56:32.205Z,145.00
2022-12-22T21:59:11.728Z,162.70
2022-12-22T22:01:53.599Z,169.07
2022-12-22T22:04:45.304Z,180.48
2022-12-22T22:07:28.342Z,198.98
2022-12-22T22:10:13.489Z,197.05
2022-12-22T22:12:51.700Z,180.32
2022-12-22T22:15:36.971Z,160.32
2022-12-22T22:18:17.409Z,154.95
2022-12-22T22:21:09.801Z,135.70
2022-12-22T22:24:01.682Z,188.80
2022-12-22T22:26:40.387Z,165.07
2022-12-22T22:29:20.718Z,174.98
2022-12-22T22:31:55.695Z,192.77
2022-12-22T22:34:41.389Z,211.55
2022-12-22T22:37:21.640Z,220.05
2022-12-22T22:40:04.410Z,191.60
2022-12-22T22:42:45.395Z,176.15
2022-12-22T22:45:39.324Z,175.70
2022-12-22T22:48:31.761Z,165.15
2022-12-22T22:51:14.939Z,171.65
2022-12-22T22:53:50.641Z,165.70
2022-12-22T22:56:35.514Z,157.90
2022-12-22T22:59:32.822Z,163.73
2022-12-22T23:02:19.290Z,173.77
2022-12-22T23:04:57.962Z,176.88
2022-12-22T23:07:34.195Z,192.95
2022-12-22T23:10:25.396Z,173.32
2022-12-22T23:13:15.349Z,164.27
2022-12-22T23:16:03.737Z,159.27
2022-12-22T23:18:42.731Z,149.13
2022-12-22T23:21:30.255Z,174.30
2022-12-22T23:24:09.365Z,166.68
2022-12-22T23:26:53.424Z,159.18
2022-12-22T23:29:45.786Z,183.73
2022-12-22T23:32:26.149Z,154.25
2022-12-22T23:35:06.913Z,152.65
2022-12-22T23:37:44.904Z,156.75
2022-12-22T23:40:50.965Z,157.10
2022-12-22T23:43:31.243Z,149.52
2022-12-22T23:46:29.304Z,172.07
2022-12-22T23:49:04.496Z,177.15
2022-12-22T23:51:57.261Z,153.32
2022-12-22T23:54:41.055Z,185.85
2022-12-22T23:57:32.184Z,168.00
